Time,TemperatureF,DewpointF,PressureIn,WindDirection,WindDirectionDegrees,WindSpeedMPH,WindSpeedGustMPH,Humidity,HourlyPrecipIn,Conditions,Clouds,dailyrainin,SoftwareType,DateUTC
2013-04-27 00:05:00,63.0,59.1,30.33,NW,325,0.0,0.0,87,0.00,,,0.00,Wunderground v.1.15,2013-04-27 04:05:00,
2013-04-27 00:10:00,62.9,59.0,30.33,NE,39,0.0,0.0,87,0.00,,,0.00,Wunderground v.1.15,2013-04-27 04:10:00,
2013-04-27 00:15:00,62.9,59.0,30.33,NW,318,0.0,0.0,87,0.00,,,0.00,Wunderground v.1.15,2013-04-27 04:15:00,
2013-04-27 00:20:00,62.9,59.0,30.33,ENE,77,0.0,0.0,87,0.00,,,0.00,Wunderground v.1.15,2013-04-27 04:20:00,
2013-04-27 00:25:00,62.9,59.0,30.33,East,91,0.0,0.0,87,0.00,,,0.00,Wunderground v.1.15,2013-04-27 04:25:00,
2013-04-27 00:30:00,62.8,58.9,30.33,NNW,328,0.0,0.0,87,0.00,,,0.00,Wunderground v.1.15,2013-04-27 04:30:00,
2013-04-27 00:35:00,62.8,58.9,30.33,NNW,348,0.0,0.0,87,0.00,,,0.00,Wunderground v.1.15,2013-04-27 04:35:00,
2013-04-27 00:40:00,62.8,59.2,30.33,NNW,342,0.0,0.0,88,0.00,,,0.00,Wunderground v.1.15,2013-04-27 04:40:00,
2013-04-27 00:50:00,62.7,58.8,30.32,NNW,342,0.0,0.0,87,0.00,,,0.00,Wunderground v.1.15,2013-04-27 04:50:00,
2013-04-27 01:00:00,62.7,58.8,30.32,NNW,347,0.0,0.0,87,0.00,,,0.00,Wunderground v.1.15,2013-04-27 05:00:00,
2013-04-27 01:10:00,62.7,59.1,30.32,NE,46,0.0,0.0,88,0.00,,,0.00,Wunderground v.1.15,2013-04-27 05:10:00,
2013-04-27 01:20:00,62.7,59.1,30.32,East,82,0.0,0.0,88,0.00,,,0.00,Wunderground v.1.15,2013-04-27 05:20:00,
2013-04-27 01:25:00,62.7,59.1,30.32,NW,312,0.0,0.0,88,0.00,,,0.00,Wunderground v.1.15,2013-04-27 05:25:00,
2013-04-27 01:35:00,62.8,59.2,30.32,East,94,0.0,0.0,88,0.00,,,0.00,Wunderground v.1.15,2013-04-27 05:35:00,
2013-04-27 01:40:00,62.7,59.1,30.32,East,90,0.0,0.0,88,0.00,,,0.00,Wunderground v.1.15,2013-04-27 05:40:00,
2013-04-27 01:50:00,62.7,59.1,30.32,NNE,28,0.0,0.0,88,0.00,,,0.00,Wunderground v.1.15,2013-04-27 05:50:00,
2013-04-27 01:55:00,62.6,59.0,30.31,ENE,70,0.0,0.0,88,0.00,,,0.00,Wunderground v.1.15,2013-04-27 05:55:00,
2013-04-27 02:00:00,62.6,59.3,30.31,NE,43,0.0,0.0,89,0.00,,,0.00,Wunderground v.1.15,2013-04-27 06:00:00,
2013-04-27 02:10:00,62.6,59.3,30.31,NE,53,0.0,0.0,89,0.00,,,0.00,Wunderground v.1.15,2013-04-27 06:10:00,
2013-04-27 02:20:00,62.6,59.3,30.31,ENE,62,0.0,0.0,89,0.00,,,0.00,Wunderground v.1.15,2013-04-27 06:20:00,
2013-04-27 02:30:00,62.6,59.3,30.32,ENE,76,0.0,0.0,89,0.00,,,0.00,Wunderground v.1.15,2013-04-27 06:30:00,
2013-04-27 02:35:00,62.7,59.7,30.32,ENE,61,0.0,0.0,90,0.00,,,0.00,Wunderground v.1.15,2013-04-27 06:35:00,
2013-04-27 02:45:00,62.7,59.4,30.32,ENE,60,0.0,0.0,89,0.00,,,0.00,Wunderground v.1.15,2013-04-27 06:45:00,
2013-04-27 02:55:00,62.7,59.4,30.31,ENE,78,0.0,0.0,89,0.00,,,0.00,Wunderground v.1.15,2013-04-27 06:55:00,
2013-04-27 03:00:00,62.7,59.4,30.31,NE,51,0.0,0.0,89,0.00,,,0.00,Wunderground v.1.15,2013-04-27 07:00:00,
2013-04-27 03:10:00,62.7,59.4,30.31,ENE,65,0.0,0.0,89,0.00,,,0.00,Wunderground v.1.15,2013-04-27 07:10:00,
2013-04-27 03:20:00,62.7,59.4,30.31,ENE,70,0.0,0.0,89,0.00,,,0.00,Wunderground v.1.15,2013-04-27 07:20:00,
2013-04-27 03:30:00,62.8,59.5,30.31,ENE,77,0.0,0.0,89,0.00,,,0.00,Wunderground v.1.15,2013-04-27 07:30:00,
2013-04-27 03:40:00,62.6,59.3,30.30,ENE,69,0.0,0.0,89,0.00,,,0.00,Wunderground v.1.15,2013-04-27 07:40:00,
2013-04-27 03:50:00,62.5,59.2,30.31,East,85,0.0,0.0,89,0.00,,,0.00,Wunderground v.1.15,2013-04-27 07:50:00,
2013-04-27 04:00:00,62.5,59.2,30.31,East,83,0.0,0.0,89,0.00,,,0.00,Wunderground v.1.15,2013-04-27 08:00:00,
2013-04-27 04:10:00,62.4,59.1,30.31,ENE,61,0.0,0.0,89,0.00,,,0.00,Wunderground v.1.15,2013-04-27 08:10:00,
2013-04-27 04:20:00,62.3,59.0,30.31,ENE,76,0.0,0.0,89,0.00,,,0.00,Wunderground v.1.15,2013-04-27 08:20:00,
2013-04-27 04:30:00,62.4,59.1,30.31,ENE,63,0.0,0.0,89,0.00,,,0.00,Wunderground v.1.15,2013-04-27 08:30:00,
2013-04-27 04:35:00,62.4,59.1,30.30,ENE,70,0.0,0.0,89,0.00,,,0.00,Wunderground v.1.15,2013-04-27 08:35:00,
2013-04-27 04:45:00,62.4,59.1,30.30,ENE,69,0.0,0.0,89,0.00,,,0.00,Wunderground v.1.15,2013-04-27 08:45:00,
2013-04-27 04:55:00,62.3,59.0,30.30,East,88,0.0,0.0,89,0.00,,,0.00,Wunderground v.1.15,2013-04-27 08:55:00,
2013-04-27 05:05:00,62.3,59.0,30.31,ENE,74,0.0,0.0,89,0.00,,,0.00,Wunderground v.1.15,2013-04-27 09:05:00,
2013-04-27 05:15:00,62.3,59.0,30.31,ENE,71,0.0,0.0,89,0.00,,,0.00,Wunderground v.1.15,2013-04-27 09:15:00,
2013-04-27 05:20:00,62.4,59.1,30.30,NE,40,0.0,0.0,89,0.00,,,0.00,Wunderground v.1.15,2013-04-27 09:20:00,
2013-04-27 05:25:00,62.3,59.3,30.30,East,80,0.0,0.0,90,0.00,,,0.00,Wunderground v.1.15,2013-04-27 09:25:00,
2013-04-27 05:35:00,62.3,59.3,30.30,ENE,58,0.0,0.0,90,0.00,,,0.00,Wunderground v.1.15,2013-04-27 09:35:00,
2013-04-27 05:40:00,62.2,59.2,30.30,ENE,71,0.0,0.0,90,0.00,,,0.00,Wunderground v.1.15,2013-04-27 09:40:00,
2013-04-27 05:50:00,62.1,59.4,30.30,ENE,59,0.0,0.0,91,0.00,,,0.00,Wunderground v.1.15,2013-04-27 09:50:00,
2013-04-27 05:55:00,62.1,59.4,30.30,East,92,0.0,0.0,91,0.00,,,0.00,Wunderground v.1.15,2013-04-27 09:55:00,
2013-04-27 06:05:00,62.2,59.5,30.30,ENE,78,0.0,0.0,91,0.00,,,0.00,Wunderground v.1.15,2013-04-27 10:05:00,
2013-04-27 06:15:00,62.1,59.4,30.29,ENE,76,0.0,0.0,91,0.00,,,0.00,Wunderground v.1.15,2013-04-27 10:15:00,
2013-04-27 06:25:00,62.2,59.5,30.30,ENE,70,0.0,0.0,91,0.00,,,0.00,Wunderground v.1.15,2013-04-27 10:25:00,
2013-04-27 06:35:00,62.3,59.6,30.30,NE,52,0.0,0.0,91,0.00,,,0.00,Wunderground v.1.15,2013-04-27 10:35:00,
2013-04-27 06:40:00,62.3,59.6,30.30,ENE,72,0.0,0.0,91,0.00,,,0.00,Wunderground v.1.15,2013-04-27 10:40:00,
2013-04-27 06:50:00,62.3,59.3,30.30,ENE,68,0.0,0.0,90,0.00,,,0.00,Wunderground v.1.15,2013-04-27 10:50:00,
2013-04-27 07:00:00,62.5,59.5,30.31,ENE,67,0.0,0.0,90,0.00,,,0.00,Wunderground v.1.15,2013-04-27 11:00:00,
2013-04-27 07:10:00,62.5,59.2,30.31,East,82,0.0,0.0,89,0.00,,,0.00,Wunderground v.1.15,2013-04-27 11:10:00,
2013-04-27 07:20:00,62.7,59.4,30.31,ENE,69,0.0,0.0,89,0.00,,,0.00,Wunderground v.1.15,2013-04-27 11:20:00,
2013-04-27 07:30:00,62.8,59.2,30.32,ENE,75,0.0,0.0,88,0.00,,,0.00,Wunderground v.1.15,2013-04-27 11:30:00,
2013-04-27 07:40:00,63.0,59.4,30.33,NE,38,0.0,0.0,88,0.00,,,0.00,Wunderground v.1.15,2013-04-27 11:40:00,
2013-04-27 07:45:00,62.9,59.0,30.33,NNE,26,0.0,0.0,87,0.00,,,0.00,Wunderground v.1.15,2013-04-27 11:45:00,
2013-04-27 07:55:00,62.5,58.3,30.33,NNE,17,0.0,0.0,86,0.00,,,0.00,Wunderground v.1.15,2013-04-27 11:55:00,
2013-04-27 08:05:00,62.0,58.1,30.33,NNE,20,0.0,0.0,87,0.00,,,0.00,Wunderground v.1.15,2013-04-27 12:05:00,
2013-04-27 08:15:00,61.4,57.8,30.33,North,355,0.0,0.0,88,0.00,,,0.00,Wunderground v.1.15,2013-04-27 12:15:00,
2013-04-27 08:25:00,61.4,58.1,30.33,North,360,0.0,0.0,89,0.00,,,0.00,Wunderground v.1.15,2013-04-27 12:25:00,
2013-04-27 08:30:00,61.5,58.2,30.34,North,5,0.0,0.0,89,0.00,,,0.00,Wunderground v.1.15,2013-04-27 12:30:00,
2013-04-27 08:40:00,61.7,58.4,30.34,North,5,0.0,0.0,89,0.00,,,0.00,Wunderground v.1.15,2013-04-27 12:40:00,
2013-04-27 08:50:00,61.8,58.2,30.34,NNE,22,0.0,0.0,88,0.00,,,0.00,Wunderground v.1.15,2013-04-27 12:50:00,
2013-04-27 09:00:00,62.5,59.2,30.33,NE,53,0.0,0.0,89,0.00,,,0.00,Wunderground v.1.15,2013-04-27 13:00:00,
2013-04-27 09:10:00,63.0,59.7,30.33,ENE,73,0.0,0.0,89,0.00,,,0.00,Wunderground v.1.15,2013-04-27 13:10:00,
2013-04-27 09:20:00,63.3,59.7,30.33,East,101,0.0,0.0,88,0.00,,,0.00,Wunderground v.1.15,2013-04-27 13:20:00,
2013-04-27 09:30:00,63.0,59.1,30.33,East,91,0.0,0.0,87,0.00,,,0.00,Wunderground v.1.15,2013-04-27 13:30:00,
2013-04-27 09:35:00,63.1,59.2,30.33,ENE,74,0.0,0.0,87,0.00,,,0.00,Wunderground v.1.15,2013-04-27 13:35:00,
2013-04-27 09:50:00,63.2,59.3,30.33,ENE,71,0.0,0.0,87,0.00,,,0.00,Wunderground v.1.15,2013-04-27 13:50:00,
2013-04-27 09:55:00,63.5,59.2,30.33,ENE,70,0.0,0.0,86,0.00,,,0.00,Wunderground v.1.15,2013-04-27 13:55:00,
2013-04-27 10:05:00,63.6,59.0,30.33,ENE,65,0.0,0.0,85,0.00,,,0.00,Wunderground v.1.15,2013-04-27 14:05:00,
2013-04-27 10:15:00,63.6,59.0,30.33,NE,49,0.0,0.0,85,0.00,,,0.00,Wunderground v.1.15,2013-04-27 14:15:00,
2013-04-27 10:25:00,64.2,59.6,30.33,East,82,0.0,0.0,85,0.00,,,0.00,Wunderground v.1.15,2013-04-27 14:25:00,
2013-04-27 10:35:00,64.3,58.7,30.33,East,82,0.0,0.0,82,0.00,,,0.00,Wunderground v.1.15,2013-04-27 14:35:00,
2013-04-27 10:40:00,64.4,58.8,30.33,ENE,74,1.0,1.0,82,0.00,,,0.00,Wunderground v.1.15,2013-04-27 14:40:00,
2013-04-27 10:45:00,64.5,58.9,30.33,NE,49,0.0,1.0,82,0.00,,,0.00,Wunderground v.1.15,2013-04-27 14:45:00,
2013-04-27 10:50:00,64.6,58.6,30.33,NE,46,1.0,3.0,81,0.00,,,0.00,Wunderground v.1.15,2013-04-27 14:50:00,
2013-04-27 11:00:00,64.5,58.9,30.32,ENE,74,1.0,1.0,82,0.00,,,0.00,Wunderground v.1.15,2013-04-27 15:00:00,
2013-04-27 11:05:00,64.6,58.6,30.32,ENE,61,0.0,1.0,81,0.00,,,0.00,Wunderground v.1.15,2013-04-27 15:05:00,
2013-04-27 11:15:00,64.7,59.1,30.32,NNE,19,1.0,8.0,82,0.00,,,0.00,Wunderground v.1.15,2013-04-27 15:15:00,
2013-04-27 11:25:00,64.8,59.2,30.32,East,88,0.0,0.0,82,0.00,,,0.00,Wunderground v.1.15,2013-04-27 15:25:00,
2013-04-27 11:35:00,64.9,59.3,30.32,East,85,1.0,7.0,82,0.00,,,0.00,Wunderground v.1.15,2013-04-27 15:35:00,
2013-04-27 11:45:00,64.6,58.6,30.32,East,90,2.0,2.0,81,0.00,,,0.00,Wunderground v.1.15,2013-04-27 15:45:00,
2013-04-27 11:55:00,64.8,58.8,30.33,ENE,77,2.0,5.0,81,0.00,,,0.00,Wunderground v.1.15,2013-04-27 15:55:00,
2013-04-27 12:05:00,65.1,58.8,30.32,ENE,77,1.0,3.0,80,0.00,,,0.00,Wunderground v.1.15,2013-04-27 16:05:00,
2013-04-27 12:15:00,65.1,58.4,30.32,NNE,27,2.0,2.0,79,0.00,,,0.00,Wunderground v.1.15,2013-04-27 16:15:00,
2013-04-27 12:25:00,65.3,58.6,30.32,East,81,0.0,1.0,79,0.00,,,0.00,Wunderground v.1.15,2013-04-27 16:25:00,
2013-04-27 12:35:00,65.6,58.6,30.31,ENE,63,2.0,2.0,78,0.00,,,0.00,Wunderground v.1.15,2013-04-27 16:35:00,
2013-04-27 12:40:00,65.8,58.4,30.31,ENE,58,2.0,2.0,77,0.00,,,0.00,Wunderground v.1.15,2013-04-27 16:40:00,
2013-04-27 12:50:00,65.7,57.9,30.31,East,80,3.0,10.0,76,0.00,,,0.00,Wunderground v.1.15,2013-04-27 16:50:00,
2013-04-27 13:00:00,65.7,57.9,30.30,East,94,6.0,11.0,76,0.00,,,0.00,Wunderground v.1.15,2013-04-27 17:00:00,
2013-04-27 13:10:00,65.9,57.4,30.30,NE,54,8.0,8.0,74,0.00,,,0.00,Wunderground v.1.15,2013-04-27 17:10:00,
2013-04-27 13:20:00,66.0,57.1,30.30,East,84,3.0,9.0,73,0.00,,,0.00,Wunderground v.1.15,2013-04-27 17:20:00,
2013-04-27 13:30:00,66.1,56.8,30.30,East,84,7.0,7.0,72,0.00,,,0.00,Wunderground v.1.15,2013-04-27 17:30:00,
2013-04-27 13:40:00,66.2,56.5,30.30,East,83,5.0,5.0,71,0.00,,,0.00,Wunderground v.1.15,2013-04-27 17:40:00,
2013-04-27 13:50:00,66.3,57.0,30.30,East,86,7.0,10.0,72,0.00,,,0.00,Wunderground v.1.15,2013-04-27 17:50:00,
2013-04-27 14:00:00,66.2,56.5,30.30,NE,52,8.0,8.0,71,0.00,,,0.00,Wunderground v.1.15,2013-04-27 18:00:00,
2013-04-27 14:10:00,66.0,55.5,30.30,ESE,102,9.0,9.0,69,0.00,,,0.00,Wunderground v.1.15,2013-04-27 18:10:00,
2013-04-27 14:20:00,66.8,55.5,30.30,East,94,8.0,10.0,67,0.00,,,0.00,Wunderground v.1.15,2013-04-27 18:20:00,
2013-04-27 14:30:00,66.7,55.8,30.30,ESE,121,8.0,8.0,68,0.00,,,0.00,Wunderground v.1.15,2013-04-27 18:30:00,
2013-04-27 14:40:00,66.0,55.1,30.30,ESE,105,8.0,8.0,68,0.00,,,0.00,Wunderground v.1.15,2013-04-27 18:40:00,
2013-04-27 14:45:00,66.2,55.7,30.30,East,88,8.0,11.0,69,0.00,,,0.00,Wunderground v.1.15,2013-04-27 18:45:00,
2013-04-27 14:55:00,66.2,55.3,30.30,East,89,10.0,11.0,68,0.00,,,0.00,Wunderground v.1.15,2013-04-27 18:55:00,
2013-04-27 15:05:00,66.4,57.1,30.30,ESE,103,9.0,9.0,72,0.00,,,0.00,Wunderground v.1.15,2013-04-27 19:05:00,
2013-04-27 15:15:00,66.5,56.4,30.30,ESE,115,9.0,13.0,70,0.00,,,0.00,Wunderground v.1.15,2013-04-27 19:15:00,
2013-04-27 15:20:00,66.1,54.8,30.29,East,84,9.0,9.0,67,0.00,,,0.00,Wunderground v.1.15,2013-04-27 19:20:00,
2013-04-27 15:30:00,65.8,54.5,30.29,East,92,9.0,9.0,67,0.00,,,0.00,Wunderground v.1.15,2013-04-27 19:30:00,
2013-04-27 15:40:00,65.9,55.0,30.29,ESE,105,9.0,9.0,68,0.00,,,0.00,Wunderground v.1.15,2013-04-27 19:40:00,
2013-04-27 15:50:00,66.5,56.0,30.29,East,94,9.0,9.0,69,0.00,,,0.00,Wunderground v.1.15,2013-04-27 19:50:00,
2013-04-27 16:00:00,66.1,56.0,30.28,East,82,9.0,15.0,70,0.00,,,0.00,Wunderground v.1.15,2013-04-27 20:00:00,
2013-04-27 16:10:00,65.9,55.0,30.28,East,93,10.0,10.0,68,0.00,,,0.00,Wunderground v.1.15,2013-04-27 20:10:00,
2013-04-27 16:15:00,65.8,55.7,30.28,ESE,113,10.0,10.0,70,0.00,,,0.00,Wunderground v.1.15,2013-04-27 20:15:00,
2013-04-27 16:25:00,65.6,55.5,30.28,East,94,10.0,13.0,70,0.00,,,0.00,Wunderground v.1.15,2013-04-27 20:25:00,
2013-04-27 16:35:00,65.7,54.8,30.27,ENE,74,9.0,13.0,68,0.00,,,0.00,Wunderground v.1.15,2013-04-27 20:35:00,
2013-04-27 16:45:00,65.8,53.7,30.27,ESE,106,10.0,15.0,65,0.00,,,0.00,Wunderground v.1.15,2013-04-27 20:45:00,
2013-04-27 16:55:00,66.0,52.6,30.27,ESE,105,10.0,11.0,62,0.00,,,0.00,Wunderground v.1.15,2013-04-27 20:55:00,
2013-04-27 17:05:00,66.1,52.7,30.27,ESE,117,10.0,10.0,62,0.00,,,0.00,Wunderground v.1.15,2013-04-27 21:05:00,
2013-04-27 17:15:00,65.9,51.6,30.27,ESE,118,10.0,10.0,60,0.00,,,0.00,Wunderground v.1.15,2013-04-27 21:15:00,
2013-04-27 17:20:00,65.8,51.5,30.26,East,83,11.0,11.0,60,0.00,,,0.00,Wunderground v.1.15,2013-04-27 21:20:00,
2013-04-27 17:30:00,65.8,52.9,30.27,East,88,10.0,13.0,63,0.00,,,0.00,Wunderground v.1.15,2013-04-27 21:30:00,
2013-04-27 17:40:00,65.7,52.3,30.27,East,96,9.0,9.0,62,0.00,,,0.00,Wunderground v.1.15,2013-04-27 21:40:00,
2013-04-27 17:50:00,65.5,50.8,30.27,East,93,10.0,10.0,59,0.00,,,0.00,Wunderground v.1.15,2013-04-27 21:50:00,
2013-04-27 18:00:00,65.4,52.0,30.28,East,89,10.0,10.0,62,0.00,,,0.00,Wunderground v.1.15,2013-04-27 22:00:00,
2013-04-27 18:10:00,65.4,52.9,30.28,ENE,77,4.0,4.0,64,0.00,,,0.00,Wunderground v.1.15,2013-04-27 22:10:00,
2013-04-27 18:15:00,65.4,51.6,30.28,ENE,73,0.0,4.0,61,0.00,,,0.00,Wunderground v.1.15,2013-04-27 22:15:00,
2013-04-27 18:25:00,65.4,51.1,30.28,NE,39,0.0,0.0,60,0.00,,,0.00,Wunderground v.1.15,2013-04-27 22:25:00,
2013-04-27 18:35:00,65.4,51.1,30.28,NNW,328,0.0,0.0,60,0.00,,,0.00,Wunderground v.1.15,2013-04-27 22:35:00,
2013-04-27 18:45:00,65.3,51.9,30.28,NNE,13,0.0,0.0,62,0.00,,,0.00,Wunderground v.1.15,2013-04-27 22:45:00,
2013-04-27 18:55:00,65.2,53.1,30.28,NE,48,0.0,0.0,65,0.00,,,0.00,Wunderground v.1.15,2013-04-27 22:55:00,
2013-04-27 19:05:00,65.2,53.6,30.28,East,84,0.0,0.0,66,0.00,,,0.00,Wunderground v.1.15,2013-04-27 23:05:00,
2013-04-27 19:10:00,65.1,53.9,30.27,East,83,0.0,0.0,67,0.00,,,0.00,Wunderground v.1.15,2013-04-27 23:10:00,
2013-04-27 19:20:00,65.0,54.2,30.27,ENE,78,0.0,0.0,68,0.00,,,0.00,Wunderground v.1.15,2013-04-27 23:20:00,
2013-04-27 19:30:00,64.9,54.1,30.27,NW,325,0.0,0.0,68,0.00,,,0.00,Wunderground v.1.15,2013-04-27 23:30:00,
2013-04-27 19:40:00,64.7,54.3,30.26,WNW,301,0.0,0.0,69,0.00,,,0.00,Wunderground v.1.15,2013-04-27 23:40:00,
2013-04-27 19:50:00,64.5,54.5,30.27,NNW,340,0.0,0.0,70,0.00,,,0.00,Wunderground v.1.15,2013-04-27 23:50:00,
2013-04-27 20:00:00,64.4,54.8,30.26,NNE,24,0.0,0.0,71,0.00,,,0.00,Wunderground v.1.15,2013-04-28 00:00:00,
2013-04-27 20:10:00,64.3,55.5,30.26,WNW,291,0.0,1.0,73,0.00,,,0.00,Wunderground v.1.15,2013-04-28 00:10:00,
2013-04-27 20:20:00,64.3,55.8,30.27,WNW,289,0.0,0.0,74,0.00,,,0.00,Wunderground v.1.15,2013-04-28 00:20:00,
2013-04-27 20:30:00,64.2,56.1,30.27,NE,34,0.0,0.0,75,0.00,,,0.00,Wunderground v.1.15,2013-04-28 00:30:00,
2013-04-27 20:40:00,64.2,56.8,30.27,WNW,292,0.0,0.0,77,0.00,,,0.00,Wunderground v.1.15,2013-04-28 00:40:00,
2013-04-27 20:45:00,64.1,56.7,30.27,WNW,284,0.0,0.0,77,0.00,,,0.00,Wunderground v.1.15,2013-04-28 00:45:00,
2013-04-27 20:55:00,64.1,57.1,30.26,WNW,300,0.0,0.0,78,0.00,,,0.00,Wunderground v.1.15,2013-04-28 00:55:00,
2013-04-27 21:05:00,64.1,57.5,30.25,West,277,0.0,0.0,79,0.00,,,0.00,Wunderground v.1.15,2013-04-28 01:05:00,
2013-04-27 21:15:00,64.1,57.8,30.25,WNW,297,0.0,0.0,80,0.00,,,0.00,Wunderground v.1.15,2013-04-28 01:15:00,
2013-04-27 21:20:00,64.0,58.1,30.26,WNW,286,0.0,1.0,81,0.00,,,0.00,Wunderground v.1.15,2013-04-28 01:20:00,
2013-04-27 21:25:00,64.0,58.1,30.26,WNW,301,0.0,1.0,81,0.00,,,0.00,Wunderground v.1.15,2013-04-28 01:25:00,
2013-04-27 21:35:00,64.0,57.7,30.26,WNW,300,0.0,0.0,80,0.00,,,0.00,Wunderground v.1.15,2013-04-28 01:35:00,
2013-04-27 21:45:00,64.1,58.1,30.26,West,269,0.0,0.0,81,0.00,,,0.00,Wunderground v.1.15,2013-04-28 01:45:00,
2013-04-27 21:55:00,64.2,58.2,30.26,WNW,289,0.0,0.0,81,0.00,,,0.00,Wunderground v.1.15,2013-04-28 01:55:00,
2013-04-27 22:05:00,64.2,58.2,30.26,West,279,0.0,0.0,81,0.00,,,0.00,Wunderground v.1.15,2013-04-28 02:05:00,
2013-04-27 22:10:00,64.2,58.2,30.26,West,279,0.0,0.0,81,0.00,,,0.00,Wunderground v.1.15,2013-04-28 02:10:00,
2013-04-27 22:20:00,64.2,58.2,30.27,West,266,0.0,0.0,81,0.00,,,0.00,Wunderground v.1.15,2013-04-28 02:20:00,
2013-04-27 22:30:00,64.2,58.2,30.26,West,261,0.0,0.0,81,0.00,,,0.00,Wunderground v.1.15,2013-04-28 02:30:00,
2013-04-27 22:40:00,64.3,58.3,30.26,WNW,285,0.0,0.0,81,0.00,,,0.00,Wunderground v.1.15,2013-04-28 02:40:00,
2013-04-27 22:50:00,64.3,58.3,30.26,West,263,0.0,0.0,81,0.00,,,0.00,Wunderground v.1.15,2013-04-28 02:50:00,
2013-04-27 23:00:00,64.3,58.7,30.26,West,279,0.0,0.0,82,0.00,,,0.00,Wunderground v.1.15,2013-04-28 03:00:00,
2013-04-27 23:10:00,64.3,58.7,30.25,West,281,0.0,0.0,82,0.00,,,0.00,Wunderground v.1.15,2013-04-28 03:10:00,
2013-04-27 23:15:00,64.2,58.9,30.25,WNW,288,0.0,0.0,83,0.00,,,0.00,Wunderground v.1.15,2013-04-28 03:15:00,
2013-04-27 23:20:00,64.1,58.8,30.25,WNW,294,0.0,0.0,83,0.00,,,0.00,Wunderground v.1.15,2013-04-28 03:20:00,
2013-04-27 23:30:00,64.1,58.8,30.25,West,281,0.0,0.0,83,0.00,,,0.00,Wunderground v.1.15,2013-04-28 03:30:00,
2013-04-27 23:40:00,64.1,59.2,30.24,NW,315,0.0,0.0,84,0.00,,,0.00,Wunderground v.1.15,2013-04-28 03:40:00,
2013-04-27 23:45:00,64.1,59.2,30.24,NW,315,0.0,0.0,84,0.00,,,0.00,Wunderground v.1.15,2013-04-28 03:45:00,
2013-04-27 23:55:00,64.2,59.6,30.23,NNE,12,0.0,0.0,85,0.00,,,0.00,Wunderground v.1.15,2013-04-28 03:55:00,